createdAt,value
2018-10-12T00:01:25.121Z,90.00
2018-10-12T00:04:28.238Z,90.10
2018-10-12T00:07:31.425Z,90.10
2018-10-12T00:10:34.552Z,89.70
2018-10-12T00:13:37.694Z,89.80
2018-10-12T00:16:40.813Z,88.70
2018-10-12T00:19:43.922Z,88.70
2018-10-12T00:22:47.028Z,88.10
2018-10-12T00:25:50.143Z,87.90
2018-10-12T00:28:53.267Z,87.40
2018-10-12T00:31:56.408Z,88.00
2018-10-12T00:34:59.485Z,87.20
2018-10-12T00:38:02.599Z,86.60
2018-10-12T00:41:05.770Z,85.70
2018-10-12T00:44:08.875Z,86.10
2018-10-12T00:47:11.987Z,85.50
2018-10-12T00:50:15.075Z,86.50
2018-10-12T00:53:18.194Z,85.60
2018-10-12T00:56:21.290Z,86.30
2018-10-12T00:59:24.383Z,85.50
2018-10-12T01:02:33.086Z,85.00
2018-10-12T01:05:36.202Z,84.60
2018-10-12T01:08:39.298Z,84.30
2018-10-12T01:11:42.365Z,83.60
2018-10-12T01:14:45.476Z,84.20
2018-10-12T01:17:48.551Z,83.70
2018-10-12T01:20:51.657Z,83.10
2018-10-12T01:23:54.721Z,83.10
2018-10-12T01:26:57.862Z,83.50
2018-10-12T01:30:00.973Z,84.50
2018-10-12T01:33:05.166Z,84.30
2018-10-12T01:36:08.246Z,83.80
2018-10-12T01:39:11.374Z,84.10
2018-10-12T01:42:14.591Z,83.90
2018-10-12T01:45:17.698Z,83.80
2018-10-12T01:48:20.774Z,83.90
2018-10-12T01:51:23.886Z,84.10
2018-10-12T01:54:27.050Z,83.90
2018-10-12T01:57:30.157Z,83.80
2018-10-12T02:00:33.235Z,83.70
2018-10-12T02:03:36.338Z,83.90
2018-10-12T02:06:39.442Z,83.80
2018-10-12T02:09:42.585Z,84.10
2018-10-12T02:12:45.654Z,83.90
2018-10-12T02:15:48.896Z,83.50
2018-10-12T02:18:51.995Z,83.40
2018-10-12T02:21:55.315Z,83.20
2018-10-12T02:24:58.393Z,83.30
2018-10-12T02:28:01.498Z,83.30
2018-10-12T02:31:04.578Z,83.00
2018-10-12T02:34:07.678Z,83.30
2018-10-12T02:37:10.774Z,83.20
2018-10-12T02:40:13.879Z,83.10
2018-10-12T02:43:16.942Z,83.00
2018-10-12T02:46:20.083Z,82.50
2018-10-12T02:49:23.189Z,82.60
2018-10-12T02:52:26.292Z,82.90
2018-10-12T02:55:29.374Z,82.90
2018-10-12T02:58:32.511Z,82.50
2018-10-12T03:01:35.598Z,82.70
2018-10-12T03:04:38.709Z,82.80
2018-10-12T03:07:41.781Z,82.20
2018-10-12T03:10:44.881Z,82.30
2018-10-12T03:13:47.992Z,82.50
2018-10-12T03:16:51.081Z,83.20
2018-10-12T03:19:54.196Z,83.10
2018-10-12T03:22:57.314Z,83.30
2018-10-12T03:26:00.558Z,83.80
2018-10-12T03:29:03.665Z,84.10
2018-10-12T03:32:06.965Z,84.40
2018-10-12T03:35:10.065Z,84.80
2018-10-12T03:38:13.407Z,85.20
2018-10-12T03:41:16.518Z,85.20
2018-10-12T03:44:19.618Z,86.50
2018-10-12T03:47:22.725Z,86.20
2018-10-12T03:50:25.801Z,86.30
2018-10-12T03:53:28.906Z,86.40
2018-10-12T03:56:32.049Z,86.50
2018-10-12T03:59:35.115Z,86.70
2018-10-12T04:02:38.269Z,86.70
2018-10-12T04:05:41.337Z,86.80
2018-10-12T04:08:44.426Z,86.90
2018-10-12T04:11:47.522Z,86.60
2018-10-12T04:14:50.589Z,86.60
2018-10-12T04:17:53.702Z,86.70
2018-10-12T04:20:56.782Z,86.90
2018-10-12T04:23:59.877Z,86.90
2018-10-12T04:27:02.969Z,87.20
2018-10-12T04:30:06.647Z,87.50
2018-10-12T04:33:09.730Z,87.50
2018-10-12T04:36:12.826Z,87.50
2018-10-12T04:39:27.527Z,87.60
2018-10-12T04:42:30.618Z,87.70
2018-10-12T04:45:33.739Z,88.00
2018-10-12T04:48:37.986Z,88.20
2018-10-12T04:51:46.118Z,88.10
2018-10-12T04:54:49.238Z,88.70
2018-10-12T04:57:52.332Z,89.00
2018-10-12T05:00:55.494Z,89.20
2018-10-12T05:03:58.534Z,89.40
2018-10-12T05:07:01.631Z,89.50
2018-10-12T05:10:04.762Z,89.80
2018-10-12T05:13:08.081Z,90.00
2018-10-12T05:16:11.185Z,90.00
2018-10-12T05:19:14.265Z,90.10
2018-10-12T05:22:17.477Z,90.20
2018-10-12T05:25:20.494Z,90.30
2018-10-12T05:28:24.363Z,90.50
2018-10-12T05:31:27.486Z,90.70
2018-10-12T05:34:30.602Z,90.80
2018-10-12T05:37:33.838Z,90.80
2018-10-12T05:40:36.942Z,90.70
2018-10-12T05:43:40.119Z,90.90
2018-10-12T05:46:43.145Z,90.70
2018-10-12T05:49:57.245Z,90.60
2018-10-12T05:53:00.378Z,90.60
2018-10-12T05:56:03.823Z,90.70
2018-10-12T05:59:07.251Z,90.70
2018-10-12T06:02:10.379Z,90.10
2018-10-12T06:05:13.478Z,89.00
2018-10-12T06:08:16.605Z,85.30
2018-10-12T06:11:19.717Z,82.80
2018-10-12T06:14:22.793Z,80.80
2018-10-12T06:17:25.886Z,77.80
2018-10-12T06:20:29.178Z,75.10
2018-10-12T06:23:32.402Z,73.10
2018-10-12T06:26:35.532Z,70.70
2018-10-12T06:29:38.642Z,68.30
2018-10-12T06:32:42.025Z,66.00
2018-10-12T06:35:45.066Z,63.60
2018-10-12T06:38:48.161Z,61.60
2018-10-12T06:41:51.433Z,60.00
2018-10-12T06:44:54.414Z,58.40
2018-10-12T06:48:04.155Z,55.80
2018-10-12T06:51:07.258Z,55.80
2018-10-12T06:54:10.795Z,55.00
2018-10-12T06:57:13.877Z,54.50
2018-10-12T07:00:16.974Z,52.70
2018-10-12T07:03:20.515Z,52.40
2018-10-12T07:06:23.166Z,50.90
2018-10-12T07:09:26.289Z,50.80
2018-10-12T07:12:29.366Z,50.70
2018-10-12T07:15:32.460Z,50.00
2018-10-12T07:18:35.543Z,49.30
2018-10-12T07:21:38.665Z,49.20
2018-10-12T07:24:41.757Z,48.90
2018-10-12T07:27:44.833Z,49.60
2018-10-12T07:30:47.953Z,50.30
2018-10-12T07:33:51.069Z,51.20
2018-10-12T07:36:54.183Z,49.60
2018-10-12T07:39:57.250Z,49.80
2018-10-12T07:43:00.349Z,49.30
2018-10-12T07:46:03.432Z,49.40
2018-10-12T07:49:06.621Z,49.60
2018-10-12T07:52:09.713Z,48.60
2018-10-12T07:55:12.815Z,48.80
2018-10-12T07:58:15.894Z,49.70
2018-10-12T08:01:18.992Z,48.30
2018-10-12T08:04:22.094Z,48.50
2018-10-12T08:07:25.218Z,49.20
2018-10-12T08:10:28.410Z,49.90
2018-10-12T08:13:31.513Z,49.60
2018-10-12T08:16:34.616Z,49.80
2018-10-12T08:19:37.702Z,49.80
2018-10-12T08:22:40.916Z,50.60
2018-10-12T08:25:44.032Z,50.50
2018-10-12T08:28:47.113Z,51.50
2018-10-12T08:31:50.203Z,52.40
2018-10-12T08:34:53.292Z,53.00
2018-10-12T08:37:56.407Z,53.40
2018-10-12T08:40:59.542Z,53.30
2018-10-12T08:44:02.682Z,55.20
2018-10-12T08:47:05.774Z,56.30
2018-10-12T08:50:08.870Z,57.40
2018-10-12T08:53:11.986Z,58.50
2018-10-12T08:56:15.108Z,59.60
2018-10-12T08:59:18.397Z,60.20
2018-10-12T09:02:21.514Z,61.80
2018-10-12T09:05:24.631Z,62.70
2018-10-12T09:08:27.719Z,63.40
2018-10-12T09:11:30.834Z,64.90
2018-10-12T09:14:33.954Z,65.50
2018-10-12T09:17:37.059Z,65.80
2018-10-12T09:20:40.251Z,65.80
2018-10-12T09:23:43.277Z,66.60
2018-10-12T09:26:46.386Z,67.20
2018-10-12T09:29:49.798Z,67.00
2018-10-12T09:32:52.886Z,67.40
2018-10-12T09:35:56.007Z,66.70
2018-10-12T09:38:59.115Z,67.60
2018-10-12T09:42:02.229Z,67.50
2018-10-12T09:45:05.314Z,68.20
2018-10-12T09:48:08.695Z,68.40
2018-10-12T09:51:11.777Z,69.40
2018-10-12T09:54:14.883Z,68.90
2018-10-12T09:57:23.359Z,69.70
2018-10-12T10:00:31.845Z,71.10
2018-10-12T10:03:40.162Z,71.20
2018-10-12T10:06:43.294Z,71.50
2018-10-12T10:09:46.401Z,70.20
2018-10-12T10:12:49.518Z,70.50
2018-10-12T10:15:52.608Z,70.60
2018-10-12T10:18:55.730Z,69.80
2018-10-12T10:21:58.851Z,69.70
2018-10-12T10:25:01.952Z,70.00
2018-10-12T10:28:05.526Z,69.30
2018-10-12T10:31:08.608Z,69.80
2018-10-12T10:34:11.718Z,69.10
2018-10-12T10:37:14.827Z,69.20
2018-10-12T10:40:17.947Z,69.40
2018-10-12T10:43:21.053Z,68.50
2018-10-12T10:46:24.236Z,67.70
2018-10-12T10:49:27.326Z,69.20
2018-10-12T10:52:30.402Z,69.00
2018-10-12T10:55:33.515Z,69.80
2018-10-12T10:58:36.649Z,69.50
2018-10-12T11:01:40.076Z,69.00
2018-10-12T11:04:43.198Z,68.70
2018-10-12T11:07:46.318Z,68.50
2018-10-12T11:10:49.435Z,68.40
2018-10-12T11:13:52.549Z,69.10
2018-10-12T11:16:55.674Z,69.90
2018-10-12T11:19:58.812Z,69.10
2018-10-12T11:23:01.928Z,69.30
2018-10-12T11:26:05.054Z,70.20
2018-10-12T11:29:08.166Z,70.00
2018-10-12T11:32:11.290Z,70.40
2018-10-12T11:35:14.391Z,70.30
2018-10-12T11:38:17.569Z,70.40
2018-10-12T11:41:20.634Z,70.70
2018-10-12T11:44:23.798Z,70.80
2018-10-12T11:47:26.914Z,71.60
2018-10-12T11:50:30.022Z,70.40
2018-10-12T11:53:33.140Z,71.40
2018-10-12T11:56:36.286Z,71.70
2018-10-12T11:59:39.369Z,72.50
2018-10-12T12:02:42.475Z,72.50
2018-10-12T12:05:45.589Z,73.10
2018-10-12T12:08:48.710Z,72.90
2018-10-12T12:11:52.650Z,73.40
2018-10-12T12:14:55.778Z,73.10
2018-10-12T12:17:59.257Z,72.80
2018-10-12T12:21:02.343Z,72.90
2018-10-12T12:24:05.557Z,73.60
2018-10-12T12:27:08.726Z,74.00
2018-10-12T12:30:11.835Z,73.40
2018-10-12T12:33:14.938Z,73.30
2018-10-12T12:36:18.103Z,74.10
2018-10-12T12:39:21.263Z,72.70
2018-10-12T12:42:24.354Z,72.60
2018-10-12T12:45:27.490Z,72.60
2018-10-12T12:48:30.829Z,71.90
2018-10-12T12:51:33.723Z,72.60
2018-10-12T12:54:36.890Z,72.20
2018-10-12T12:57:40.020Z,72.80
2018-10-12T13:00:43.097Z,73.30
2018-10-12T13:03:46.207Z,72.90
2018-10-12T13:06:49.315Z,73.40
2018-10-12T13:09:52.423Z,73.90
2018-10-12T13:12:55.507Z,74.50
2018-10-12T13:15:58.669Z,74.20
2018-10-12T13:19:01.766Z,74.20
2018-10-12T13:22:04.878Z,74.30
2018-10-12T13:25:08.018Z,74.90
2018-10-12T13:28:11.139Z,74.40
2018-10-12T13:31:14.230Z,75.10
2018-10-12T13:34:17.436Z,74.70
2018-10-12T13:37:20.546Z,74.90
2018-10-12T13:40:23.771Z,76.30
2018-10-12T13:43:26.774Z,74.80
2018-10-12T13:46:29.956Z,75.10
2018-10-12T13:49:33.047Z,75.90
2018-10-12T13:52:36.158Z,75.90
2018-10-12T13:55:39.312Z,75.70
2018-10-12T13:58:42.494Z,75.70
2018-10-12T14:01:45.607Z,76.00
2018-10-12T14:04:48.732Z,76.30
2018-10-12T14:07:51.878Z,75.90
2018-10-12T14:10:54.991Z,76.00
2018-10-12T14:13:58.089Z,76.30
2018-10-12T14:17:01.306Z,76.50
2018-10-12T14:20:04.522Z,76.20
2018-10-12T14:23:07.727Z,76.40
2018-10-12T14:26:10.838Z,76.60
2018-10-12T14:29:13.958Z,76.00
2018-10-12T14:32:17.046Z,76.40
2018-10-12T14:35:20.175Z,76.40
2018-10-12T14:38:23.299Z,76.30
2018-10-12T14:41:26.419Z,76.90
2018-10-12T14:44:29.654Z,77.30
2018-10-12T14:47:33.686Z,76.50
2018-10-12T14:50:36.910Z,76.50
2018-10-12T14:53:40.050Z,77.40
2018-10-12T14:56:43.263Z,77.10
2018-10-12T14:59:46.603Z,77.30
2018-10-12T15:02:49.741Z,77.40
2018-10-12T15:05:52.870Z,76.60
2018-10-12T15:08:55.973Z,76.70
2018-10-12T15:11:59.115Z,76.80
2018-10-12T15:15:16.789Z,77.30
2018-10-12T15:18:21.050Z,77.30
2018-10-12T15:21:24.358Z,77.20
2018-10-12T15:24:27.290Z,77.20
2018-10-12T15:27:30.368Z,77.10
2018-10-12T15:30:33.477Z,77.20
2018-10-12T15:33:36.582Z,77.10
2018-10-12T15:36:39.718Z,77.80
2018-10-12T15:39:42.801Z,77.10
2018-10-12T15:42:45.947Z,77.10
2018-10-12T15:45:49.005Z,77.40
2018-10-12T15:48:52.122Z,77.70
2018-10-12T15:51:55.242Z,77.70
2018-10-12T15:54:58.386Z,77.80
2018-10-12T15:58:01.491Z,78.10
2018-10-12T16:01:04.575Z,78.50
2018-10-12T16:04:07.793Z,79.10
2018-10-12T16:07:10.886Z,79.30
2018-10-12T16:10:14.018Z,79.70
2018-10-12T16:13:17.548Z,80.20
2018-10-12T16:16:20.663Z,80.60
2018-10-12T16:19:23.815Z,81.20
2018-10-12T16:22:26.948Z,81.70
2018-10-12T16:25:50.835Z,82.20
2018-10-12T16:28:54.022Z,82.90
2018-10-12T16:31:57.071Z,83.40
2018-10-12T16:35:00.179Z,83.90
2018-10-12T16:38:03.269Z,84.70
2018-10-12T16:41:06.409Z,85.50
2018-10-12T16:44:09.898Z,86.20
2018-10-12T16:47:13.062Z,86.80
2018-10-12T16:50:16.147Z,88.30
2018-10-12T16:53:19.270Z,88.10
2018-10-12T16:56:22.365Z,88.60
2018-10-12T16:59:25.460Z,89.50
2018-10-12T17:02:28.554Z,89.80
2018-10-12T17:05:31.653Z,90.10
2018-10-12T17:08:34.730Z,90.70
2018-10-12T17:11:37.809Z,90.60
2018-10-12T17:14:40.879Z,90.70
2018-10-12T17:17:44.003Z,91.00
2018-10-12T17:20:47.069Z,91.10
2018-10-12T17:23:50.178Z,91.10
2018-10-12T17:26:53.307Z,91.20
2018-10-12T17:29:56.375Z,91.40
2018-10-12T17:32:59.471Z,91.60
2018-10-12T17:36:02.562Z,91.40
2018-10-12T17:39:09.373Z,91.80
2018-10-12T17:42:15.402Z,92.00
2018-10-12T17:45:18.489Z,91.90
2018-10-12T17:48:21.590Z,91.80
2018-10-12T17:51:24.718Z,91.90
2018-10-12T17:54:27.821Z,91.90
2018-10-12T17:57:30.906Z,92.10
2018-10-12T18:00:34.038Z,92.10
2018-10-12T18:03:37.078Z,92.10
2018-10-12T18:06:40.174Z,92.20
2018-10-12T18:09:43.271Z,92.30
2018-10-12T18:12:46.378Z,92.50
2018-10-12T18:15:49.486Z,92.50
2018-10-12T18:18:52.567Z,92.60
2018-10-12T18:21:55.658Z,93.10
2018-10-12T18:24:58.726Z,92.80
2018-10-12T18:28:01.835Z,92.90
2018-10-12T18:31:04.934Z,93.10
2018-10-12T18:34:08.070Z,93.10
2018-10-12T18:37:11.166Z,93.30
2018-10-12T18:40:14.251Z,93.30
2018-10-12T18:43:17.354Z,93.50
2018-10-12T18:46:20.426Z,93.50
2018-10-12T18:49:23.530Z,93.60
2018-10-12T18:52:26.638Z,93.80
2018-10-12T18:55:29.740Z,93.90
2018-10-12T18:58:32.929Z,93.90
2018-10-12T19:01:36.014Z,94.00
2018-10-12T19:04:39.219Z,94.10
2018-10-12T19:07:42.243Z,94.30
2018-10-12T19:10:45.362Z,94.40
2018-10-12T19:13:48.606Z,94.40
2018-10-12T19:16:51.646Z,94.60
2018-10-12T19:19:54.750Z,94.70
2018-10-12T19:22:57.834Z,94.70
2018-10-12T19:26:00.938Z,94.80
2018-10-12T19:29:09.658Z,94.80
2018-10-12T19:32:12.827Z,94.90
2018-10-12T19:35:15.939Z,94.90
2018-10-12T19:38:19.117Z,95.00
2018-10-12T19:41:22.204Z,95.10
2018-10-12T19:44:25.347Z,95.10
2018-10-12T19:47:28.463Z,95.10
2018-10-12T19:50:31.591Z,95.10
2018-10-12T19:53:34.699Z,95.10
2018-10-12T19:56:37.807Z,95.20
2018-10-12T19:59:41.283Z,95.10
2018-10-12T20:02:44.399Z,95.00
2018-10-12T20:05:47.518Z,95.20
2018-10-12T20:08:50.613Z,95.60
2018-10-12T20:11:54.303Z,95.40
2018-10-12T20:14:57.450Z,95.40
2018-10-12T20:18:00.595Z,95.40
2018-10-12T20:21:03.718Z,95.50
2018-10-12T20:24:07.228Z,95.60
2018-10-12T20:27:10.293Z,95.70
2018-10-12T20:30:13.402Z,95.80
2018-10-12T20:33:16.742Z,95.90
2018-10-12T20:36:19.826Z,95.90
2018-10-12T20:39:23.056Z,96.00
2018-10-12T20:42:26.094Z,96.00
2018-10-12T20:45:29.217Z,95.90
2018-10-12T20:48:32.557Z,96.40
2018-10-12T20:51:35.969Z,95.90
2018-10-12T20:54:39.185Z,95.90
2018-10-12T20:57:45.794Z,95.80
2018-10-12T21:00:48.926Z,95.90
2018-10-12T21:03:52.040Z,95.80
2018-10-12T21:06:55.127Z,95.80
2018-10-12T21:09:58.233Z,95.80
2018-10-12T21:13:01.354Z,95.90
2018-10-12T21:16:04.446Z,95.80
2018-10-12T21:19:07.804Z,95.80
2018-10-12T21:22:10.918Z,95.80
2018-10-12T21:25:14.018Z,96.00
2018-10-12T21:28:17.264Z,96.10
2018-10-12T21:31:20.273Z,96.00
2018-10-12T21:34:23.374Z,96.00
2018-10-12T21:37:26.458Z,96.00
2018-10-12T21:40:29.589Z,95.90
2018-10-12T21:43:32.682Z,96.00
2018-10-12T21:46:35.828Z,96.10
2018-10-12T21:49:38.894Z,96.20
2018-10-12T21:52:42.004Z,96.50
2018-10-12T21:55:45.120Z,96.20
2018-10-12T21:58:48.510Z,96.40
2018-10-12T22:01:51.592Z,96.30
2018-10-12T22:04:54.682Z,96.40
2018-10-12T22:07:57.790Z,96.50
2018-10-12T22:11:00.891Z,96.60
2018-10-12T22:14:04.376Z,96.70
2018-10-12T22:17:07.475Z,96.60
2018-10-12T22:20:10.606Z,96.70
2018-10-12T22:23:13.706Z,96.50
2018-10-12T22:26:16.848Z,96.60
2018-10-12T22:29:19.918Z,96.60
2018-10-12T22:32:23.066Z,96.70
2018-10-12T22:35:26.142Z,96.80
2018-10-12T22:38:29.238Z,97.00
2018-10-12T22:41:32.338Z,97.10
2018-10-12T22:44:35.416Z,97.20
2018-10-12T22:47:45.031Z,97.40
2018-10-12T22:50:48.138Z,97.50
2018-10-12T22:53:51.255Z,97.70
2018-10-12T22:56:54.355Z,97.90
2018-10-12T22:59:57.468Z,98.10
2018-10-12T23:03:00.916Z,98.30
2018-10-12T23:06:03.994Z,98.50
2018-10-12T23:09:09.277Z,98.80
2018-10-12T23:12:12.362Z,98.80
2018-10-12T23:15:15.622Z,98.90
2018-10-12T23:18:18.865Z,99.20
2018-10-12T23:21:21.961Z,99.30
2018-10-12T23:24:25.049Z,99.40
2018-10-12T23:27:28.157Z,99.40
2018-10-12T23:30:31.255Z,99.30
2018-10-12T23:33:45.803Z,99.40
2018-10-12T23:36:48.882Z,99.50
2018-10-12T23:39:51.982Z,99.50
2018-10-12T23:42:55.056Z,99.60
2018-10-12T23:45:58.146Z,99.60
2018-10-12T23:49:01.233Z,99.70
2018-10-12T23:52:04.361Z,99.70
2018-10-12T23:55:07.443Z,99.80
2018-10-12T23:58:10.558Z,99.60
